Time;durP1;ratioP1;P1;durP2;ratioP2;P2;SDS_P1;SDS_P2;PMS_P1;PMS_P2;Temp;Humidity;BMP_temperature;BMP_pressure;BME280_temperature;BME280_humidity;BME280_pressure;Samples;Min_cycle;Max_cycle;Signal;HPM_P1;HPM_P2
2021/04/23 00:01:01;;;;;;;6.83;5.17;;;;;;;17.31;56.37;99566.97;1773511;77;21177;-69
2021/04/23 00:03:41;;;;;;;6.72;5.62;;;;;;;17.31;56.37;99562.94;1789635;79;21637;-68
2021/04/23 00:06:25;;;;;;;5.53;5.00;;;;;;;17.30;56.35;99565.30;1800693;79;21622;-69
2021/04/23 00:09:14;;;;;;;6.10;5.53;;;;;;;17.28;56.40;99562.02;1785975;79;21237;-69
2021/04/23 00:11:46;;;;;;;5.95;5.45;;;;;;;17.28;56.40;99557.98;1787210;79;21178;-70
2021/04/23 00:14:15;;;;;;;6.15;5.42;;;;;;;17.26;56.46;99558.73;1798312;79;21205;-69
2021/04/23 00:16:44;;;;;;;6.35;5.72;;;;;;;17.25;56.48;99552.55;1794630;79;21162;-68
2021/04/23 00:19:14;;;;;;;6.83;5.70;;;;;;;17.25;56.48;99547.70;1795432;79;21142;-68
2021/04/23 00:21:43;;;;;;;5.80;5.17;;;;;;;17.25;56.49;99557.09;1781517;79;21362;-70
2021/04/23 00:24:12;;;;;;;6.60;5.67;;;;;;;17.24;56.54;99556.25;1781182;79;21598;-68
2021/04/23 00:26:41;;;;;;;6.08;5.45;;;;;;;17.25;56.50;99553.07;1787686;79;21163;-69
2021/04/23 00:29:10;;;;;;;6.62;5.87;;;;;;;17.23;56.53;99547.91;1782824;79;21189;-69
2021/04/23 00:31:38;;;;;;;6.53;5.92;;;;;;;17.24;56.56;99544.70;1763021;79;21173;-70
2021/04/23 00:34:06;;;;;;;6.30;5.65;;;;;;;17.23;56.54;99555.12;1802863;79;22087;-69
2021/04/23 00:36:33;;;;;;;6.67;6.00;;;;;;;17.24;56.56;99563.48;1810624;79;21098;-69
2021/04/23 00:39:03;;;;;;;6.30;5.70;;;;;;;17.24;56.56;99556.78;1800526;79;21113;-69
2021/04/23 00:41:34;;;;;;;6.35;5.67;;;;;;;17.24;56.57;99570.20;1765997;77;21190;-70
2021/04/23 00:44:24;;;;;;;7.10;6.40;;;;;;;17.22;56.59;99574.44;1808804;79;21147;-69
2021/04/23 00:46:51;;;;;;;6.55;5.95;;;;;;;17.22;56.58;99582.49;1738914;82;21446;-69
2021/04/23 00:49:19;;;;;;;6.25;5.65;;;;;;;17.22;56.61;99587.05;1738925;81;21193;-68
2021/04/23 00:51:59;;;;;;;6.90;5.40;;;;;;;17.21;56.60;99596.97;1738821;82;21162;-69
2021/04/23 00:54:28;;;;;;;6.65;5.95;;;;;;;17.22;56.63;99603.16;1722815;82;21164;-70
2021/04/23 00:56:57;;;;;;;7.08;6.05;;;;;;;17.21;56.62;99594.28;1738922;82;21164;-68
2021/04/23 00:59:25;;;;;;;9.30;6.40;;;;;;;17.20;56.65;99600.67;1737301;81;21375;-69
2021/04/23 01:02:07;;;;;;;7.05;6.35;;;;;;;17.20;56.62;99601.20;1738936;82;21210;-68
2021/04/23 01:04:35;;;;;;;6.35;5.72;;;;;;;17.20;56.63;99601.20;1739232;82;21161;-68
2021/04/23 01:07:03;;;;;;;7.25;6.55;;;;;;;17.19;56.67;99603.56;1738827;82;21207;-69
2021/04/23 01:09:30;;;;;;;6.92;5.95;;;;;;;17.18;56.68;99599.25;1739090;82;21167;-69
2021/04/23 01:12:04;;;;;;;7.08;6.37;;;;;;;17.17;56.70;99591.73;1738930;81;21432;-69
2021/04/23 01:14:32;;;;;;;6.37;5.70;;;;;;;17.17;56.70;99591.73;1738946;81;21158;-68
2021/04/23 01:16:59;;;;;;;8.65;5.92;;;;;;;17.17;56.73;99585.02;1735271;82;21579;-67
2021/04/23 01:19:28;;;;;;;7.60;5.90;;;;;;;17.18;56.70;99595.23;1739011;82;21136;-68
2021/04/23 01:21:56;;;;;;;5.80;5.30;;;;;;;17.17;56.71;99594.91;1738944;82;21161;-68
2021/04/23 01:24:25;;;;;;;6.12;5.60;;;;;;;17.17;56.75;99598.94;1739036;81;21624;-68
2021/04/23 01:26:54;;;;;;;6.22;5.62;;;;;;;17.17;56.72;99600.28;1725727;82;21673;-67
2021/04/23 01:29:23;;;;;;;5.78;5.28;;;;;;;17.16;56.72;99600.80;1738962;82;21171;-68
2021/04/23 01:31:56;;;;;;;6.05;5.45;;;;;;;17.16;56.72;99594.09;1738900;82;21642;-66
2021/04/23 01:34:34;;;;;;;6.08;5.47;;;;;;;17.16;56.72;99587.91;1737479;82;21191;-67
2021/04/23 01:37:02;;;;;;;6.95;5.95;;;;;;;17.15;56.73;99591.62;1730543;82;21597;-68
2021/04/23 01:39:32;;;;;;;5.85;5.25;;;;;;;17.14;56.74;99594.02;1738973;82;21185;-68
2021/04/23 01:42:05;;;;;;;5.83;5.30;;;;;;;17.14;56.76;99598.04;1739027;82;21590;-68
2021/04/23 01:44:32;;;;;;;5.62;5.12;;;;;;;17.12;56.78;99595.56;1738847;82;21149;-68
2021/04/23 01:47:00;;;;;;;6.37;5.78;;;;;;;17.11;56.81;99592.56;1718233;81;21178;-67
2021/04/23 01:49:28;;;;;;;5.58;4.97;;;;;;;17.12;56.81;99588.85;1700421;82;21280;-68
2021/04/23 01:52:00;;;;;;;6.65;5.67;;;;;;;17.12;56.81;99591.54;1716368;82;21169;-67
2021/04/23 01:54:27;;;;;;;6.00;5.40;;;;;;;17.11;56.80;99587.19;1699966;83;21152;-66
2021/04/23 01:56:56;;;;;;;6.00;5.22;;;;;;;17.11;56.82;99584.51;1740783;82;21159;-67
2021/04/23 01:59:24;;;;;;;5.90;5.35;;;;;;;17.10;56.83;99591.75;1721209;82;21195;-67
2021/04/23 02:01:52;;;;;;;5.72;5.17;;;;;;;17.10;56.84;99595.77;1738690;82;21284;-67
2021/04/23 02:04:21;;;;;;;6.30;5.65;;;;;;;17.10;56.84;99599.80;1732285;82;21126;-67
2021/04/23 02:06:50;;;;;;;5.60;5.10;;;;;;;17.09;56.87;99610.73;1714510;82;21150;-68
2021/04/23 02:09:18;;;;;;;5.55;5.05;;;;;;;17.09;56.87;99612.93;1745339;81;21742;-68
2021/04/23 02:11:47;;;;;;;5.53;5.00;;;;;;;17.08;56.87;99623.34;1721910;82;21084;-67
2021/04/23 02:14:16;;;;;;;5.55;4.97;;;;;;;17.09;56.88;99637.58;1743929;82;21539;-65
2021/04/23 02:16:44;;;;;;;5.50;4.97;;;;;;;17.08;56.85;99640.80;1724498;82;21607;-67
2021/04/23 02:19:12;;;;;;;5.75;5.15;;;;;;;17.08;56.88;99649.37;1716767;82;21103;-67
2021/04/23 02:21:41;;;;;;;6.22;5.45;;;;;;;17.07;56.89;99653.92;1716514;83;21170;-67
2021/04/23 02:24:09;;;;;;;5.22;4.62;;;;;;;17.05;56.89;99659.98;1711552;82;21188;-68
2021/04/23 02:26:37;;;;;;;5.35;4.85;;;;;;;17.06;56.85;99667.02;1715618;82;21376;-67
2021/04/23 02:29:07;;;;;;;5.05;4.55;;;;;;;17.05;56.84;99674.75;1737730;82;21183;-68
2021/04/23 02:31:37;;;;;;;5.80;5.20;;;;;;;17.05;56.82;99665.88;1714801;83;21185;-69
2021/04/23 02:34:08;;;;;;;5.58;4.67;;;;;;;17.04;56.84;99669.09;1742344;82;21651;-68
2021/04/23 02:36:35;;;;;;;5.15;4.65;;;;;;;17.03;56.82;99662.06;1742856;82;21111;-68
2021/04/23 02:39:05;;;;;;;5.60;4.65;;;;;;;17.02;56.82;99668.48;1742175;82;21334;-68
2021/04/23 02:41:32;;;;;;;5.53;5.03;;;;;;;17.01;56.82;99672.19;1745319;82;21208;-68
2021/04/23 02:44:01;;;;;;;5.22;4.70;;;;;;;17.00;56.83;99670.55;1746371;82;21112;-66
2021/04/23 02:46:28;;;;;;;4.60;4.20;;;;;;;16.99;56.82;99678.28;1749169;81;21221;-67
2021/04/23 02:48:59;;;;;;;4.50;4.10;;;;;;;17.00;56.82;99684.50;1750871;81;21204;-68
2021/04/23 02:51:30;;;;;;;4.95;4.45;;;;;;;16.98;56.83;99690.08;1750223;81;22271;-67
2021/04/23 02:53:57;;;;;;;4.95;4.25;;;;;;;16.97;56.82;99690.28;1766151;80;21558;-69
2021/04/23 02:56:25;;;;;;;6.35;4.87;;;;;;;16.96;56.85;99694.83;1779061;80;21173;-68
2021/04/23 02:58:53;;;;;;;4.33;3.92;;;;;;;16.95;56.84;99695.84;1761347;80;21166;-68
2021/04/23 03:01:24;;;;;;;4.12;3.72;;;;;;;16.95;56.81;99701.74;1778504;80;21141;-69
2021/04/23 03:03:53;;;;;;;4.10;3.80;;;;;;;16.94;56.84;99704.95;1757318;80;22092;-69
2021/04/23 03:06:21;;;;;;;4.10;3.70;;;;;;;16.93;56.80;99718.05;1765360;80;21123;-69
2021/04/23 03:08:50;;;;;;;4.90;4.10;;;;;;;16.92;56.84;99723.62;1766010;80;21122;-68
2021/04/23 03:11:21;;;;;;;5.37;3.92;;;;;;;16.91;56.80;99730.84;1757153;80;21158;-68
2021/04/23 03:13:52;;;;;;;4.80;4.40;;;;;;;16.90;56.82;99739.91;1773605;80;21117;-69
2021/04/23 03:16:20;;;;;;;4.37;3.98;;;;;;;16.88;56.88;99745.52;1772262;80;21195;-69
2021/04/23 03:18:49;;;;;;;4.42;4.00;;;;;;;16.88;56.83;99752.22;1768313;78;21162;-68
2021/04/23 03:21:20;;;;;;;4.50;3.98;;;;;;;16.87;56.84;99752.43;1757087;80;21166;-68
2021/04/23 03:23:48;;;;;;;4.72;4.28;;;;;;;16.87;56.85;99756.45;1770697;80;21184;-67
2021/04/23 03:26:17;;;;;;;4.25;3.85;;;;;;;16.85;56.85;99755.31;1757137;80;21159;-68
2021/04/23 03:28:47;;;;;;;4.47;3.92;;;;;;;16.85;56.84;99758.52;1771063;80;22160;-67
2021/04/23 03:31:15;;;;;;;4.75;4.35;;;;;;;16.83;56.81;99768.64;1757116;80;21166;-68
2021/04/23 03:33:43;;;;;;;4.30;3.40;;;;;;;16.82;56.83;99769.66;1763237;80;21110;-67
2021/04/23 03:36:11;;;;;;;4.45;3.60;;;;;;;16.81;56.82;99774.70;1773434;78;21165;-68
2021/04/23 03:38:42;;;;;;;4.10;3.70;;;;;;;16.80;56.82;99773.84;1757212;80;21114;-68
2021/04/23 03:41:24;;;;;;;4.12;3.62;;;;;;;16.79;56.81;99774.08;1761431;80;21384;-68
2021/04/23 03:43:52;;;;;;;4.22;3.83;;;;;;;16.78;56.80;99772.42;1777397;80;21110;-67
2021/04/23 03:46:20;;;;;;;4.03;3.50;;;;;;;16.76;56.80;99782.01;1758039;80;21150;-69
2021/04/23 03:48:49;;;;;;;3.95;3.47;;;;;;;16.76;56.81;99778.51;1783749;79;21245;-68
2021/04/23 03:51:18;;;;;;;3.80;3.50;;;;;;;16.75;56.82;99777.70;1782667;80;21147;-67
2021/04/23 03:53:46;;;;;;;3.98;3.58;;;;;;;16.73;56.81;99778.42;1783734;80;21364;-67
2021/04/23 03:56:14;;;;;;;3.90;3.42;;;;;;;16.72;56.84;99782.12;1783718;80;21107;-68
2021/04/23 03:58:42;;;;;;;3.50;3.20;;;;;;;16.71;56.82;99788.01;1783829;79;22101;-69
2021/04/23 04:01:15;;;;;;;3.92;3.40;;;;;;;16.69;56.82;99788.73;1783789;80;21135;-67
2021/04/23 04:03:43;;;;;;;4.53;3.90;;;;;;;16.69;56.80;99794.09;1783837;79;21160;-68
2021/04/23 04:06:11;;;;;;;3.98;3.15;;;;;;;16.68;56.81;99797.80;1782587;80;21365;-68
2021/04/23 04:08:40;;;;;;;4.12;3.72;;;;;;;16.67;56.84;99800.19;1739983;82;21182;-67
2021/04/23 04:11:07;;;;;;;4.17;3.30;;;;;;;16.66;56.80;99799.86;1723151;83;21277;-68
2021/04/23 04:13:36;;;;;;;4.20;3.52;;;;;;;16.66;56.83;99797.70;1746384;82;21151;-68
2021/04/23 04:16:05;;;;;;;3.87;3.45;;;;;;;16.64;56.82;99797.91;1717537;83;21121;-68
2021/04/23 04:18:32;;;;;;;4.25;3.33;;;;;;;16.64;56.81;99804.61;1746391;82;21358;-69
2021/04/23 04:21:00;;;;;;;3.62;3.20;;;;;;;16.63;56.83;99802.13;1743373;82;21171;-68
2021/04/23 04:23:28;;;;;;;3.65;3.22;;;;;;;16.63;56.83;99805.66;1730237;80;21851;-68
2021/04/23 04:26:00;;;;;;;4.20;3.62;;;;;;;16.63;56.83;99804.81;1722307;83;21186;-70
2021/04/23 04:28:28;;;;;;;3.37;3.08;;;;;;;16.62;56.84;99800.49;1746406;82;21119;-69
2021/04/23 04:30:56;;;;;;;3.60;3.02;;;;;;;16.60;56.84;99806.58;1717614;83;21365;-67
2021/04/23 04:33:25;;;;;;;4.47;3.37;;;;;;;16.59;56.87;99807.11;1742579;82;21646;-69
2021/04/23 04:35:53;;;;;;;4.12;3.10;;;;;;;16.59;56.86;99810.28;1717545;83;21148;-68
2021/04/23 04:38:20;;;;;;;3.72;3.20;;;;;;;16.58;56.87;99811.33;1746396;82;21167;-68
2021/04/23 04:40:49;;;;;;;4.12;3.20;;;;;;;16.57;56.88;99807.80;1716520;83;21167;-68
2021/04/23 04:43:17;;;;;;;3.77;3.08;;;;;;;16.57;56.91;99812.34;1746387;82;21394;-68
2021/04/23 04:45:45;;;;;;;3.37;3.08;;;;;;;16.56;56.88;99810.71;1717179;83;21199;-68
2021/04/23 04:48:14;;;;;;;4.20;3.40;;;;;;;16.56;56.92;99815.55;1715636;81;21181;-68
2021/04/23 04:50:51;;;;;;;3.47;3.15;;;;;;;16.55;56.90;99819.25;1740220;81;21127;-68
2021/04/23 04:53:20;;;;;;;3.65;3.35;;;;;;;16.55;56.89;99817.91;1750205;81;21552;-70
2021/04/23 04:55:49;;;;;;;3.08;2.87;;;;;;;16.54;56.93;99822.97;1754027;81;21563;-69
2021/04/23 04:58:21;;;;;;;4.30;3.60;;;;;;;16.54;56.97;99816.27;1737967;81;21582;-67
2021/04/23 05:00:49;;;;;;;4.47;3.30;;;;;;;16.54;56.95;99824.31;1745130;81;21135;-67
2021/04/23 05:03:16;;;;;;;3.80;2.90;;;;;;;16.54;56.95;99818.14;1746435;81;21674;-67
2021/04/23 05:05:44;;;;;;;3.72;3.20;;;;;;;16.54;56.95;99823.50;1728762;81;21120;-67
2021/04/23 05:08:12;;;;;;;3.30;2.70;;;;;;;16.53;56.94;99821.31;1754066;81;21597;-69
2021/04/23 05:10:40;;;;;;;4.35;3.25;;;;;;;16.54;56.96;99825.66;1754009;81;21635;-70
2021/04/23 05:13:07;;;;;;;3.37;3.08;;;;;;;16.55;56.97;99830.50;1753976;81;21228;-69
2021/04/23 05:15:34;;;;;;;3.50;2.92;;;;;;;16.55;56.96;99827.30;1746644;81;21618;-67
2021/04/23 05:18:02;;;;;;;4.28;3.20;;;;;;;16.55;56.94;99820.59;1739856;81;21155;-68
2021/04/23 05:20:30;;;;;;;3.33;2.75;;;;;;;16.56;56.95;99814.20;1754099;81;21335;-68
2021/04/23 05:22:57;;;;;;;3.10;2.80;;;;;;;16.57;56.95;99815.84;1753923;81;21131;-67
2021/04/23 05:25:25;;;;;;;3.05;2.50;;;;;;;16.58;56.88;99816.16;1754022;81;21151;-69
2021/04/23 05:27:53;;;;;;;3.70;2.92;;;;;;;16.59;56.84;99815.15;1753926;81;21143;-68
2021/04/23 05:30:24;;;;;;;4.12;3.00;;;;;;;16.60;56.84;99817.31;1750685;81;21176;-67
2021/04/23 05:32:52;;;;;;;2.65;2.45;;;;;;;16.61;56.82;99823.81;1745774;81;21370;-69
2021/04/23 05:35:22;;;;;;;3.08;2.77;;;;;;;16.62;56.79;99821.95;1753310;81;21178;-69
2021/04/23 05:37:50;;;;;;;4.17;3.00;;;;;;;16.62;56.78;99818.75;1753972;81;21123;-69
2021/04/23 05:40:30;;;;;;;2.85;2.65;;;;;;;16.64;56.79;99815.86;1754027;81;21154;-68
2021/04/23 05:42:58;;;;;;;3.45;2.70;;;;;;;16.65;56.72;99822.86;1754011;81;21119;-69
2021/04/23 05:45:27;;;;;;;3.12;2.50;;;;;;;16.64;56.73;99815.34;1754043;81;21377;-68
2021/04/23 05:47:55;;;;;;;3.40;2.67;;;;;;;16.65;56.72;99821.52;1751194;80;21609;-69
2021/04/23 05:50:22;;;;;;;2.50;2.30;;;;;;;16.65;56.73;99821.03;1749795;81;21161;-69
2021/04/23 05:52:50;;;;;;;3.08;2.65;;;;;;;16.67;56.70;99823.51;1757471;80;21083;-68
2021/04/23 05:55:24;;;;;;;3.08;2.77;;;;;;;16.69;56.65;99826.81;1778923;78;21150;-69
2021/04/23 05:57:50;;;;;;;3.12;2.60;;;;;;;16.69;56.62;99833.52;1762177;80;21422;-68
2021/04/23 06:00:19;;;;;;;3.77;2.70;;;;;;;16.69;56.58;99835.67;1763987;78;21130;-68
2021/04/23 06:02:48;;;;;;;2.55;2.35;;;;;;;16.71;56.63;99837.63;1757033;80;21141;-68
2021/04/23 06:05:16;;;;;;;2.47;2.25;;;;;;;16.72;56.63;99831.74;1764813;78;21201;-68
2021/04/23 06:07:43;;;;;;;2.60;2.40;;;;;;;16.74;56.55;99835.05;1763846;80;21138;-69
2021/04/23 06:10:14;;;;;;;3.27;2.60;;;;;;;16.76;56.50;99840.20;1763848;80;21465;-70
2021/04/23 06:12:42;;;;;;;2.83;2.40;;;;;;;16.78;56.43;99839.48;1757079;80;21149;-70
2021/04/23 06:15:12;;;;;;;3.20;2.85;;;;;;;16.80;56.38;99842.78;1757046;80;21697;-69
2021/04/23 06:17:40;;;;;;;3.33;2.60;;;;;;;16.83;56.29;99833.84;1706050;83;21194;-69
2021/04/23 06:20:13;;;;;;;3.70;2.65;;;;;;;16.85;56.47;99843.03;1757088;80;21197;-69
2021/04/23 06:22:40;;;;;;;2.58;2.37;;;;;;;16.87;57.13;99844.47;1763227;80;26079;-69
2021/04/23 06:25:10;;;;;;;3.62;3.33;;;;;;;16.91;57.29;99848.91;1757045;80;22025;-68
2021/04/23 06:27:38;;;;;;;3.92;3.20;;;;;;;16.92;57.26;99847.89;1764626;78;21169;-69
2021/04/23 06:30:09;;;;;;;2.92;2.62;;;;;;;16.95;57.20;99845.30;1759973;78;21162;-69
2021/04/23 06:32:40;;;;;;;2.90;2.67;;;;;;;16.97;57.12;99843.23;1763409;78;21114;-70
2021/04/23 06:35:09;;;;;;;2.90;2.45;;;;;;;16.99;57.11;99841.98;1762977;78;22327;-69
2021/04/23 06:37:37;;;;;;;2.72;2.52;;;;;;;17.02;57.02;99846.13;1767721;78;21166;-69
2021/04/23 06:40:06;;;;;;;3.58;2.92;;;;;;;17.04;56.97;99843.54;1781629;80;21457;-70
2021/04/23 06:42:36;;;;;;;2.92;2.67;;;;;;;17.06;56.86;99844.16;1757147;78;21621;-69
2021/04/23 06:45:06;;;;;;;2.80;2.45;;;;;;;17.09;56.79;99846.44;1757037;80;21118;-68
2021/04/23 06:47:34;;;;;;;2.83;2.27;;;;;;;17.12;56.72;99847.05;1756137;79;21356;-70
2021/04/23 06:50:03;;;;;;;3.05;2.52;;;;;;;17.14;56.64;99843.64;1783808;79;21211;-69
2021/04/23 06:52:31;;;;;;;3.08;2.80;;;;;;;17.18;56.54;99847.55;1768788;80;21183;-68
2021/04/23 06:55:00;;;;;;;3.30;2.70;;;;;;;17.19;56.46;99846.50;1764072;80;21183;-69
2021/04/23 06:57:27;;;;;;;2.55;2.35;;;;;;;17.22;56.43;99848.25;1782793;80;21135;-70
2021/04/23 06:59:54;;;;;;;3.90;2.75;;;;;;;17.24;56.32;99846.19;1783831;80;21188;-67
2021/04/23 07:02:22;;;;;;;3.40;2.65;;;;;;;17.26;56.24;99854.86;1765784;79;21194;-69
2021/04/23 07:04:49;;;;;;;3.15;2.52;;;;;;;17.30;56.18;99851.23;1783925;80;21155;-68
2021/04/23 07:07:17;;;;;;;3.42;2.67;;;;;;;17.32;56.10;99849.17;1783749;80;21427;-69
2021/04/23 07:09:45;;;;;;;4.10;2.37;;;;;;;17.35;56.01;99854.13;1783876;80;21103;-66
2021/04/23 07:12:12;;;;;;;3.20;2.65;;;;;;;17.37;55.94;99852.06;1783762;80;21525;-69
2021/04/23 07:14:39;;;;;;;3.60;2.60;;;;;;;17.40;55.91;99853.00;1782489;80;21154;-68
2021/04/23 07:17:11;;;;;;;2.83;2.62;;;;;;;17.43;55.84;99848.53;1775877;80;21593;-68
2021/04/23 07:19:38;;;;;;;2.67;2.20;;;;;;;17.47;55.80;99851.63;1753284;79;21174;-68
2021/04/23 07:22:06;;;;;;;2.80;2.35;;;;;;;17.48;55.73;99855.45;1771389;80;21191;-69
2021/04/23 07:24:34;;;;;;;2.83;2.47;;;;;;;17.53;55.62;99860.70;1783608;80;21545;-68
2021/04/23 07:27:02;;;;;;;2.62;2.30;;;;;;;17.56;55.62;99862.95;1779468;80;21183;-69
2021/04/23 07:29:32;;;;;;;2.90;2.65;;;;;;;17.59;55.50;99859.85;1712091;83;21181;-68
2021/04/23 07:31:59;;;;;;;2.80;2.27;;;;;;;17.62;55.46;99856.76;1713289;83;21253;-69
2021/04/23 07:34:27;;;;;;;2.90;2.50;;;;;;;17.65;55.35;99857.66;1714235;83;21166;-68
2021/04/23 07:36:54;;;;;;;3.35;2.67;;;;;;;17.68;55.36;99859.94;1714266;83;21395;-68
2021/04/23 07:39:26;;;;;;;2.55;2.35;;;;;;;17.71;55.37;99851.44;1714273;83;21596;-69
2021/04/23 07:41:51;;;;;;;3.00;2.40;;;;;;;17.72;55.28;99854.44;1713989;83;21143;-68
2021/04/23 07:44:18;;;;;;;2.75;2.30;;;;;;;17.75;55.28;99850.49;1714158;82;21173;-69
2021/04/23 07:46:45;;;;;;;2.77;2.45;;;;;;;17.76;55.20;99854.32;1713915;83;21197;-67
2021/04/23 07:49:13;;;;;;;2.90;2.40;;;;;;;17.78;55.19;99853.59;1729765;81;21377;-69
2021/04/23 07:51:41;;;;;;;3.30;2.70;;;;;;;17.79;55.10;99851.22;1752661;81;21795;-67
2021/04/23 07:54:09;;;;;;;3.92;2.90;;;;;;;17.81;55.11;99850.98;1714279;81;21189;-68
2021/04/23 07:56:37;;;;;;;3.15;2.47;;;;;;;17.81;55.04;99844.27;1750518;79;21109;-69
2021/04/23 07:59:04;;;;;;;3.22;2.67;;;;;;;17.83;54.99;99848.94;1728803;83;21141;-69
2021/04/23 08:01:33;;;;;;;2.52;2.15;;;;;;;17.83;54.93;99852.44;1745194;79;21375;-68
2021/04/23 08:04:01;;;;;;;2.72;2.50;;;;;;;17.84;54.93;99856.79;1734117;81;21189;-70
2021/04/23 08:06:28;;;;;;;2.60;2.37;;;;;;;17.84;54.84;99860.00;1774243;79;21138;-69
2021/04/23 08:08:56;;;;;;;3.08;2.60;;;;;;;17.84;54.91;99855.45;1745244;81;21196;-67
2021/04/23 08:11:24;;;;;;;3.15;2.70;;;;;;;17.85;54.77;99860.33;1744053;80;21127;-68
2021/04/23 08:13:52;;;;;;;3.00;2.12;;;;;;;17.86;54.69;99862.78;1737217;81;22173;-69
2021/04/23 08:16:21;;;;;;;3.58;3.08;;;;;;;17.87;54.66;99859.59;1754288;80;21134;-69
2021/04/23 08:18:53;;;;;;;3.65;2.45;;;;;;;17.88;54.57;99850.48;1710391;83;21197;-68
2021/04/23 08:21:20;;;;;;;3.47;2.40;;;;;;;17.88;54.49;99848.61;1741604;80;21170;-68
2021/04/23 08:23:48;;;;;;;3.90;2.40;;;;;;;17.91;54.41;99853.28;1735502;81;21168;-68
2021/04/23 08:26:17;;;;;;;2.95;2.50;;;;;;;17.94;54.39;99856.86;1753252;80;21203;-69
2021/04/23 08:28:45;;;;;;;2.62;2.42;;;;;;;17.95;54.35;99859.88;1736905;81;21663;-69
2021/04/23 08:31:14;;;;;;;2.70;2.47;;;;;;;17.97;54.37;99858.61;1750467;81;21174;-68
2021/04/23 08:33:42;;;;;;;2.72;2.47;;;;;;;18.01;54.40;99861.70;1759092;80;21170;-70
2021/04/23 08:36:12;;;;;;;2.67;2.20;;;;;;;18.03;54.48;99856.41;1710982;83;21611;-68
2021/04/23 08:38:40;;;;;;;2.62;2.40;;;;;;;18.06;54.65;99856.52;1760514;80;21213;-69
2021/04/23 08:41:08;;;;;;;2.55;2.35;;;;;;;18.09;54.54;99868.17;1743608;81;21156;-70
2021/04/23 08:43:36;;;;;;;2.65;2.45;;;;;;;18.13;54.54;99873.95;1753360;80;21166;-69
2021/04/23 08:46:04;;;;;;;2.75;2.42;;;;;;;18.14;54.53;99861.64;1735285;81;21508;-69
2021/04/23 08:48:31;;;;;;;3.98;2.87;;;;;;;18.16;54.63;99859.55;1730265;81;21126;-69
2021/04/23 08:51:00;;;;;;;2.40;2.02;;;;;;;18.19;54.63;99869.86;1717478;82;21268;-69
2021/04/23 08:53:28;;;;;;;2.27;2.05;;;;;;;18.22;54.47;99865.41;1699679;83;21211;-69
2021/04/23 08:55:56;;;;;;;2.92;2.62;;;;;;;18.26;54.49;99867.16;1691440;83;21187;-69
2021/04/23 08:58:24;;;;;;;2.90;2.20;;;;;;;18.31;54.48;99867.84;1709180;82;21219;-69
2021/04/23 09:00:51;;;;;;;2.92;2.22;;;;;;;18.35;54.43;99860.98;1701539;83;21159;-69
2021/04/23 09:03:21;;;;;;;2.58;2.20;;;;;;;18.39;54.24;99859.02;1690258;83;22115;-70
2021/04/23 09:06:20;;;;;;;3.10;2.33;;;;;;;18.43;54.00;99855.38;1695893;83;21217;-70
2021/04/23 09:08:58;;;;;;;3.33;2.27;;;;;;;18.47;53.88;99853.37;1708414;83;21189;-68
2021/04/23 09:11:40;;;;;;;3.05;2.40;;;;;;;18.52;53.69;99854.58;1677835;84;21211;-69
2021/04/23 09:14:14;;;;;;;2.60;2.40;;;;;;;18.54;53.64;99854.66;1699489;83;21697;-68
2021/04/23 09:16:57;;;;;;;2.40;2.20;;;;;;;18.57;53.69;99851.55;1691690;83;22298;-68
2021/04/23 09:19:31;;;;;;;2.52;2.20;;;;;;;18.60;53.65;99852.47;1691676;83;21223;-68
2021/04/23 09:22:22;;;;;;;2.60;2.35;;;;;;;18.63;53.74;99856.05;1697807;82;21219;-69
2021/04/23 09:25:06;;;;;;;3.65;2.10;;;;;;;18.65;53.65;99856.65;1682060;83;22175;-69
2021/04/23 09:27:36;;;;;;;3.05;2.12;;;;;;;18.70;53.52;99861.89;1699083;83;21137;-68
2021/04/23 09:30:07;;;;;;;2.62;2.17;;;;;;;18.74;53.47;99859.91;1693558;82;22303;-69
2021/04/23 09:32:39;;;;;;;2.65;2.37;;;;;;;18.81;53.51;99854.49;1695198;82;21584;-68
2021/04/23 09:35:18;;;;;;;2.17;1.95;;;;;;;18.88;53.54;99853.11;1695366;83;21568;-69
2021/04/23 09:37:52;;;;;;;2.40;2.10;;;;;;;18.95;53.50;99857.39;1695620;83;21175;-68
2021/04/23 09:40:30;;;;;;;2.42;2.17;;;;;;;19.03;53.78;99861.15;1698627;83;22114;-68
2021/04/23 09:43:04;;;;;;;2.58;2.08;;;;;;;19.11;54.00;99867.31;1693902;83;22308;-70
2021/04/23 09:45:33;;;;;;;2.30;2.10;;;;;;;19.19;53.76;99854.90;1695820;83;21175;-71
2021/04/23 09:48:01;;;;;;;2.70;2.30;;;;;;;19.26;53.71;99865.09;1698107;82;21219;-69
2021/04/23 09:50:33;;;;;;;3.05;2.37;;;;;;;19.31;53.55;99857.15;1705166;81;21233;-69
2021/04/23 09:53:00;;;;;;;2.50;2.30;;;;;;;19.38;53.30;99858.45;1704765;81;21175;-70
2021/04/23 09:55:32;;;;;;;2.40;2.02;;;;;;;19.44;53.28;99844.89;1702273;82;21586;-69
2021/04/23 09:58:07;;;;;;;2.33;2.08;;;;;;;19.51;53.38;99850.23;1697303;83;21230;-69
2021/04/23 10:00:44;;;;;;;2.45;1.80;;;;;;;19.58;53.35;99844.75;1703055;83;21241;-70
2021/04/23 10:04:48;;;;;;;2.50;1.95;;;;;;;19.78;53.37;99833.75;1739099;79;23270;-70
2021/04/23 10:07:31;;;;;;;3.72;2.25;;;;;;;19.78;53.36;99827.86;1726090;82;21038;-69
2021/04/23 10:10:09;;;;;;;3.33;2.30;;;;;;;19.88;53.50;99823.81;1723532;82;21050;-68
2021/04/23 10:12:54;;;;;;;3.20;2.30;;;;;;;19.95;53.51;99819.98;1710908;82;21052;-70
2021/04/23 10:15:34;;;;;;;3.17;2.55;;;;;;;20.06;53.53;99825.64;1727426;82;21602;-69
2021/04/23 10:18:08;;;;;;;2.35;2.15;;;;;;;20.16;53.85;99830.77;1713463;82;21186;-68
2021/04/23 10:20:40;;;;;;;2.10;1.90;;;;;;;20.27;53.58;99826.48;1720911;82;21162;-69
2021/04/23 10:23:14;;;;;;;2.42;2.22;;;;;;;20.38;53.35;99821.65;1716101;82;21375;-69
2021/04/23 10:25:41;;;;;;;2.02;1.82;;;;;;;20.53;53.19;99818.53;1715796;82;21189;-69
2021/04/23 10:28:12;;;;;;;2.08;1.87;;;;;;;20.66;53.07;99819.39;1708323;82;21151;-69
2021/04/23 10:30:42;;;;;;;2.47;2.02;;;;;;;20.80;53.01;99814.89;1734805;82;21197;-69
2021/04/23 10:33:13;;;;;;;2.15;1.95;;;;;;;20.96;52.85;99820.13;1729779;82;21147;-69
2021/04/23 10:35:42;;;;;;;2.10;1.90;;;;;;;21.08;52.99;99811.20;1730207;82;21334;-68
2021/04/23 10:38:12;;;;;;;1.90;1.70;;;;;;;21.18;53.03;99818.17;1729010;82;21157;-68
2021/04/23 10:40:42;;;;;;;2.20;1.77;;;;;;;21.23;52.42;99810.20;1728291;82;21172;-69
2021/04/23 10:43:15;;;;;;;2.20;1.72;;;;;;;21.26;51.84;99813.75;1714025;82;21231;-68
2021/04/23 10:46:08;;;;;;;1.70;1.60;;;;;;;21.25;51.55;99806.73;1724279;82;21168;-70
2021/04/23 10:48:37;;;;;;;1.98;1.70;;;;;;;21.23;51.33;99807.49;1717311;82;21385;-68
2021/04/23 10:51:20;;;;;;;2.00;1.80;;;;;;;21.19;51.17;99811.73;1705602;82;21218;-69
2021/04/23 10:53:49;;;;;;;3.10;1.75;;;;;;;21.15;51.36;99809.18;1727705;82;21126;-69
2021/04/23 10:56:38;;;;;;;4.60;2.02;;;;;;;21.12;51.24;99820.47;1722004;82;21143;-70
2021/04/23 10:59:32;;;;;;;2.33;2.00;;;;;;;21.07;51.47;99821.70;1708861;82;21157;-70
2021/04/23 11:02:13;;;;;;;2.40;1.75;;;;;;;21.03;51.58;99823.23;1726409;82;22766;-69
2021/04/23 11:04:57;;;;;;;2.30;2.10;;;;;;;20.96;51.52;99822.01;1645644;86;21246;-68
2021/04/23 11:07:25;;;;;;;2.35;2.15;;;;;;;20.92;51.56;99821.66;1692002;82;21261;-70
2021/04/23 11:09:59;;;;;;;3.15;2.02;;;;;;;20.88;51.54;99819.63;1705273;82;21160;-69
2021/04/23 11:12:27;;;;;;;2.98;2.00;;;;;;;20.85;51.51;99819.58;1714935;82;21194;-70
2021/04/23 11:15:15;;;;;;;2.62;2.12;;;;;;;20.82;51.47;99825.44;1708339;82;21422;-69
2021/04/23 11:17:42;;;;;;;4.60;2.25;;;;;;;20.81;51.47;99819.77;1711645;82;21195;-67
2021/04/23 11:20:29;;;;;;;2.42;2.20;;;;;;;20.80;51.57;99816.75;1718890;82;21137;-69
2021/04/23 11:22:58;;;;;;;2.60;2.10;;;;;;;20.79;51.60;99818.64;1720461;82;21656;-71
2021/04/23 11:25:26;;;;;;;2.35;2.02;;;;;;;20.77;51.46;99804.55;1721554;82;21122;-70
2021/04/23 11:28:05;;;;;;;3.45;2.22;;;;;;;20.76;51.46;99808.29;1713594;82;21471;-68
2021/04/23 11:31:04;;;;;;;2.37;2.17;;;;;;;20.76;51.51;99814.23;1711853;82;21212;-68
2021/04/23 11:33:54;;;;;;;1.85;1.70;;;;;;;20.74;51.46;99810.94;1698999;82;21728;-71
2021/04/23 11:36:28;;;;;;;2.27;1.87;;;;;;;20.72;51.33;99809.00;1705693;82;21197;-72
2021/04/23 11:39:03;;;;;;;2.37;2.05;;;;;;;20.69;51.25;99804.91;1713724;82;21178;-70
2021/04/23 11:41:31;;;;;;;2.65;2.00;;;;;;;20.67;51.28;99801.62;1710887;82;22673;-70
2021/04/23 11:43:58;;;;;;;2.95;2.20;;;;;;;20.66;51.24;99795.91;1718477;82;21597;-71
2021/04/23 11:46:52;;;;;;;2.80;2.20;;;;;;;20.66;51.08;99797.27;1711360;82;21133;-71
2021/04/23 11:49:20;;;;;;;2.30;2.08;;;;;;;20.65;51.22;99800.19;1715545;82;21167;-70
2021/04/23 11:51:51;;;;;;;2.95;2.25;;;;;;;20.63;51.29;99796.39;1724607;82;21168;-72